createdAt,value
2024-02-01T00:00:06.363Z,10.82
2024-02-01T00:02:33.985Z,10.45
2024-02-01T00:05:01.558Z,8.38
2024-02-01T00:07:29.406Z,9.68
2024-02-01T00:09:56.799Z,9.20
2024-02-01T00:12:24.225Z,10.90
2024-02-01T00:14:52.984Z,8.27
2024-02-01T00:17:20.445Z,10.60
2024-02-01T00:19:48.072Z,9.65
2024-02-01T00:22:27.307Z,9.40
2024-02-01T00:24:58.313Z,8.73
2024-02-01T00:27:25.841Z,10.48
2024-02-01T00:29:54.635Z,9.40
2024-02-01T00:32:22.198Z,9.60
2024-02-01T00:34:49.849Z,9.77
2024-02-01T00:37:18.076Z,10.35
2024-02-01T00:39:45.551Z,9.75
2024-02-01T00:42:13.069Z,11.30
2024-02-01T00:44:40.604Z,10.52
2024-02-01T00:47:09.458Z,11.93
2024-02-01T00:49:37.252Z,11.13
2024-02-01T00:52:05.347Z,14.85
2024-02-01T00:54:33.036Z,9.27
2024-02-01T00:57:00.608Z,14.30
2024-02-01T00:59:29.129Z,9.88
2024-02-01T01:01:56.772Z,11.73
2024-02-01T01:04:25.793Z,9.82
2024-02-01T01:06:53.302Z,11.18
2024-02-01T01:09:20.851Z,12.40
2024-02-01T01:11:48.354Z,13.65
2024-02-01T01:14:15.824Z,10.73
2024-02-01T01:16:43.301Z,13.02
2024-02-01T01:19:11.401Z,11.60
2024-02-01T01:21:40.359Z,10.98
2024-02-01T01:24:07.918Z,14.13
2024-02-01T01:26:35.553Z,9.68
2024-02-01T01:29:03.030Z,10.88
2024-02-01T01:31:30.523Z,12.15
2024-02-01T01:33:58.139Z,11.07
2024-02-01T01:36:25.729Z,11.02
2024-02-01T01:38:54.558Z,11.07
2024-02-01T01:41:22.064Z,11.02
2024-02-01T01:43:49.592Z,10.35
2024-02-01T01:46:17.054Z,12.18
2024-02-01T01:48:44.667Z,10.95
2024-02-01T01:51:12.319Z,12.48
2024-02-01T01:53:40.530Z,11.90
2024-02-01T01:56:10.097Z,13.90
2024-02-01T01:58:37.730Z,12.90
2024-02-01T02:01:05.808Z,9.70
2024-02-01T02:03:38.664Z,13.77
2024-02-01T02:08:34.062Z,11.02
2024-02-01T02:11:01.784Z,10.25
2024-02-01T02:13:30.564Z,9.90
2024-02-01T02:15:58.053Z,9.98
2024-02-01T02:18:25.912Z,9.77
2024-02-01T02:20:56.716Z,9.50
2024-02-01T02:23:25.577Z,9.27
2024-02-01T02:25:53.002Z,9.73
2024-02-01T02:28:22.364Z,8.80
2024-02-01T02:30:49.860Z,15.55
2024-02-01T02:33:17.446Z,10.27
2024-02-01T02:35:45.316Z,11.98
2024-02-01T02:38:13.181Z,10.57
2024-02-01T02:40:41.972Z,10.45
2024-02-01T02:43:09.411Z,11.57
2024-02-01T02:45:36.837Z,9.10
2024-02-01T02:48:06.619Z,12.52
2024-02-01T02:50:34.171Z,12.63
2024-02-01T02:53:01.712Z,11.10
2024-02-01T02:55:29.893Z,13.32
2024-02-01T02:57:58.650Z,12.93
2024-02-01T03:00:26.143Z,9.70
2024-02-01T03:02:53.596Z,12.52
2024-02-01T03:05:21.045Z,13.40
2024-02-01T03:07:48.499Z,15.45
2024-02-01T03:10:16.913Z,14.73
2024-02-01T03:12:44.468Z,13.98
2024-02-01T03:15:13.357Z,11.50
2024-02-01T03:17:42.296Z,14.32
2024-02-01T03:20:19.190Z,11.65
2024-02-01T03:22:47.704Z,14.30
2024-02-01T03:25:15.607Z,15.30
2024-02-01T03:27:44.381Z,12.27
2024-02-01T03:30:14.540Z,14.00
2024-02-01T03:32:42.212Z,14.30
2024-02-01T03:35:10.697Z,13.82
2024-02-01T03:37:38.150Z,14.45
2024-02-01T03:40:06.933Z,12.88
2024-02-01T03:42:34.447Z,14.63
2024-02-01T03:45:06.252Z,11.48
2024-02-01T03:47:35.244Z,12.18
2024-02-01T03:50:02.799Z,14.15
2024-02-01T03:52:30.528Z,13.45
2024-02-01T03:54:57.950Z,13.45
2024-02-01T03:57:25.537Z,14.43
2024-02-01T03:59:54.318Z,15.32
2024-02-01T04:02:23.014Z,15.77
2024-02-01T04:04:51.980Z,14.25
2024-02-01T04:07:20.176Z,15.65
2024-02-01T04:09:49.140Z,13.48
2024-02-01T04:12:17.247Z,14.43
2024-02-01T04:14:45.002Z,14.35
2024-02-01T04:17:12.466Z,14.27
2024-02-01T04:19:40.008Z,17.58
2024-02-01T04:22:11.277Z,14.07
2024-02-01T04:24:38.736Z,16.45
2024-02-01T04:27:06.244Z,14.57
2024-02-01T04:29:36.127Z,17.95
2024-02-01T04:32:04.077Z,16.58
2024-02-01T04:34:31.970Z,16.65
2024-02-01T04:36:59.556Z,13.30
2024-02-01T04:39:31.047Z,12.95
2024-02-01T04:42:15.373Z,15.05
2024-02-01T04:44:43.537Z,15.82
2024-02-01T04:47:11.211Z,19.38
2024-02-01T04:49:38.861Z,16.70
2024-02-01T04:52:07.461Z,21.95
2024-02-01T04:54:38.283Z,16.23
2024-02-01T04:57:14.547Z,18.90
2024-02-01T04:59:45.541Z,17.48
2024-02-01T05:02:13.228Z,18.20
2024-02-01T05:04:40.716Z,17.38
2024-02-01T05:07:08.504Z,19.85
2024-02-01T05:09:39.264Z,23.55
2024-02-01T05:12:08.585Z,25.55
2024-02-01T05:14:37.474Z,28.15
2024-02-01T05:17:05.606Z,28.75
2024-02-01T05:19:33.244Z,25.63
2024-02-01T05:22:01.657Z,30.40
2024-02-01T05:24:29.316Z,23.77
2024-02-01T05:26:59.254Z,22.10
2024-02-01T05:29:27.628Z,26.33
2024-02-01T05:31:56.254Z,22.75
2024-02-01T05:34:24.479Z,23.95
2024-02-01T05:36:53.164Z,20.70
2024-02-01T05:39:27.941Z,20.45
2024-02-01T05:41:56.135Z,22.27
2024-02-01T05:44:26.461Z,23.83
2024-02-01T05:46:55.433Z,23.52
2024-02-01T05:49:23.604Z,20.83
2024-02-01T05:51:52.200Z,20.77
2024-02-01T05:54:21.081Z,20.00
2024-02-01T05:56:48.813Z,20.83
2024-02-01T05:59:17.896Z,17.40
2024-02-01T06:01:47.532Z,21.52
2024-02-01T06:04:15.932Z,18.83
2024-02-01T06:06:46.833Z,20.80
2024-02-01T06:09:14.902Z,20.03
2024-02-01T06:11:43.145Z,18.17
2024-02-01T06:14:10.638Z,18.10
2024-02-01T06:16:38.170Z,22.48
2024-02-01T06:19:07.137Z,21.67
2024-02-01T06:21:35.001Z,17.50
2024-02-01T06:24:02.935Z,20.80
2024-02-01T06:26:30.971Z,20.63
2024-02-01T06:29:01.345Z,23.98
2024-02-01T06:31:29.317Z,24.40
2024-02-01T06:33:56.864Z,24.27
2024-02-01T06:36:35.976Z,25.88
2024-02-01T06:39:11.136Z,22.90
2024-02-01T06:41:48.233Z,23.88
2024-02-01T06:44:26.706Z,21.50
2024-02-01T06:47:13.452Z,23.50
2024-02-01T06:50:04.329Z,23.52
2024-02-01T06:52:41.388Z,22.83
2024-02-01T06:55:26.381Z,21.65
2024-02-01T06:58:14.267Z,18.88
2024-02-01T07:01:02.721Z,21.88
2024-02-01T07:03:58.802Z,20.95
2024-02-01T07:06:40.527Z,19.33
2024-02-01T07:09:27.283Z,23.15
2024-02-01T07:12:15.261Z,23.75
2024-02-01T07:14:49.785Z,24.20
2024-02-01T07:17:29.250Z,20.15
2024-02-01T07:20:05.073Z,21.05
2024-02-01T07:22:37.187Z,23.48
2024-02-01T07:25:12.909Z,18.67
2024-02-01T07:27:58.719Z,19.02
2024-02-01T07:30:43.905Z,17.85
2024-02-01T07:33:28.926Z,18.80
2024-02-01T07:36:13.851Z,21.25
2024-02-01T07:38:59.168Z,18.52
2024-02-01T07:41:45.668Z,17.00
2024-02-01T07:44:30.660Z,17.13
2024-02-01T07:47:15.995Z,19.30
2024-02-01T07:50:01.176Z,18.45
2024-02-01T07:52:43.226Z,15.15
2024-02-01T07:55:28.272Z,18.58
2024-02-01T07:58:00.281Z,13.27
2024-02-01T08:00:34.645Z,13.20
2024-02-01T08:03:04.926Z,13.90
2024-02-01T08:05:50.464Z,12.52
2024-02-01T08:08:18.327Z,11.98
2024-02-01T08:10:46.165Z,14.75
2024-02-01T08:13:15.671Z,9.27
2024-02-01T08:15:44.059Z,11.23
2024-02-01T08:18:12.633Z,11.10
2024-02-01T08:20:41.309Z,11.35
2024-02-01T08:23:09.928Z,12.85
2024-02-01T08:25:41.678Z,9.70
2024-02-01T08:30:39.376Z,12.27
2024-02-01T08:33:16.899Z,15.70
2024-02-01T08:35:45.304Z,11.07
2024-02-01T08:38:13.117Z,14.55
2024-02-01T08:40:42.151Z,13.32
2024-02-01T08:43:11.166Z,11.98
2024-02-01T08:45:45.350Z,13.68
2024-02-01T08:48:13.755Z,12.77
2024-02-01T08:50:44.171Z,10.68
2024-02-01T08:53:13.038Z,13.50
2024-02-01T08:55:41.020Z,14.82
2024-02-01T08:58:12.768Z,11.98
2024-02-01T09:00:43.828Z,10.57
2024-02-01T09:03:17.030Z,10.00
2024-02-01T09:05:45.778Z,9.70
2024-02-01T09:08:14.660Z,10.55
2024-02-01T09:10:51.372Z,12.90
2024-02-01T09:13:20.736Z,10.80
2024-02-01T09:15:49.944Z,9.75
2024-02-01T09:18:17.612Z,15.80
2024-02-01T09:20:45.525Z,10.10
2024-02-01T09:23:13.897Z,10.82
2024-02-01T09:25:43.036Z,12.45
2024-02-01T09:28:14.077Z,10.60
2024-02-01T09:30:46.785Z,8.13
2024-02-01T09:33:16.404Z,12.77
2024-02-01T09:35:44.883Z,16.70
2024-02-01T09:38:12.470Z,16.00
2024-02-01T09:40:42.624Z,7.85
2024-02-01T09:43:18.311Z,20.10
2024-02-01T09:45:46.455Z,16.77
2024-02-01T09:48:17.402Z,11.43
2024-02-01T09:50:52.467Z,14.82
2024-02-01T09:53:23.603Z,11.57
2024-02-01T09:55:51.920Z,12.07
2024-02-01T09:58:19.970Z,13.98
2024-02-01T10:00:47.878Z,13.32
2024-02-01T10:03:16.179Z,14.48
2024-02-01T10:05:44.564Z,17.38
2024-02-01T10:08:15.643Z,10.18
2024-02-01T10:10:44.006Z,14.02
2024-02-01T10:13:14.879Z,13.45
2024-02-01T10:15:45.306Z,12.73
2024-02-01T10:18:17.180Z,17.58
2024-02-01T10:20:49.248Z,15.45
2024-02-01T10:23:20.730Z,12.85
2024-02-01T10:25:49.370Z,15.05
2024-02-01T10:28:18.497Z,12.43
2024-02-01T10:30:46.853Z,11.35
2024-02-01T10:33:15.217Z,14.60
2024-02-01T10:35:45.161Z,13.48
2024-02-01T10:38:15.765Z,12.73
2024-02-01T10:41:00.796Z,12.10
2024-02-01T10:43:30.344Z,11.32
2024-02-01T10:46:06.621Z,11.82
2024-02-01T10:48:36.976Z,15.80
2024-02-01T10:51:11.231Z,17.30
2024-02-01T10:53:44.382Z,17.10
2024-02-01T10:56:18.165Z,9.70
2024-02-01T10:58:47.746Z,10.77
2024-02-01T11:01:18.025Z,13.82
2024-02-01T11:03:49.152Z,14.32
2024-02-01T11:06:17.772Z,15.70
2024-02-01T11:08:46.800Z,17.33
2024-02-01T11:11:19.119Z,9.85
2024-02-01T11:13:49.890Z,8.73
2024-02-01T11:16:18.178Z,12.38
2024-02-01T11:18:55.888Z,18.20
2024-02-01T11:21:30.394Z,11.98
2024-02-01T11:24:06.735Z,13.15
2024-02-01T11:26:42.128Z,16.10
2024-02-01T11:29:11.708Z,12.98
2024-02-01T11:31:46.710Z,11.20
2024-02-01T11:34:17.043Z,10.90
2024-02-01T11:36:45.700Z,16.08
2024-02-01T11:39:14.551Z,12.75
2024-02-01T11:41:47.624Z,9.40
2024-02-01T11:44:15.654Z,12.85
2024-02-01T11:46:46.996Z,10.18
2024-02-01T11:49:19.113Z,17.80
2024-02-01T11:51:47.274Z,13.40
2024-02-01T11:54:14.895Z,12.85
2024-02-01T11:56:45.017Z,10.77
2024-02-01T11:59:12.734Z,8.55
2024-02-01T12:01:40.535Z,17.25
2024-02-01T12:04:08.316Z,13.43
2024-02-01T12:06:36.148Z,11.93
2024-02-01T12:09:03.879Z,14.38
2024-02-01T12:11:35.470Z,9.63
2024-02-01T12:16:42.457Z,18.90
2024-02-01T12:19:14.166Z,11.95
2024-02-01T12:21:42.067Z,16.15
2024-02-01T12:24:11.887Z,10.75
2024-02-01T12:26:39.476Z,14.05
2024-02-01T12:29:08.385Z,17.55
2024-02-01T12:31:35.346Z,15.02
2024-02-01T12:34:02.946Z,9.85
2024-02-01T12:36:30.869Z,16.80
2024-02-01T12:38:58.866Z,15.77
2024-02-01T12:41:26.834Z,14.95
2024-02-01T12:43:54.348Z,11.73
2024-02-01T12:46:25.863Z,18.38
2024-02-01T12:48:53.811Z,12.60
2024-02-01T12:51:28.038Z,18.30
2024-02-01T12:53:56.988Z,19.80
2024-02-01T12:56:26.693Z,16.30
2024-02-01T12:58:55.369Z,16.90
2024-02-01T13:01:27.462Z,21.33
2024-02-01T13:03:55.470Z,14.57
2024-02-01T13:06:23.270Z,18.05
2024-02-01T13:08:53.451Z,23.52
2024-02-01T13:11:26.969Z,18.20
2024-02-01T13:13:56.801Z,16.77
2024-02-01T13:16:26.574Z,19.80
2024-02-01T13:18:54.475Z,19.50
2024-02-01T13:21:22.252Z,20.85
2024-02-01T13:23:49.741Z,18.48
2024-02-01T13:26:17.326Z,20.25
2024-02-01T13:28:44.981Z,17.10
2024-02-01T13:31:12.667Z,18.92
2024-02-01T13:33:41.945Z,17.88
2024-02-01T13:36:10.742Z,13.73
2024-02-01T13:38:38.625Z,17.63
2024-02-01T13:41:06.735Z,17.95
2024-02-01T13:43:35.241Z,22.20
2024-02-01T13:46:02.816Z,16.13
2024-02-01T13:48:30.350Z,19.15
2024-02-01T13:51:04.665Z,18.95
2024-02-01T13:53:32.293Z,14.77
2024-02-01T13:56:09.574Z,11.90
2024-02-01T13:58:37.119Z,20.92
2024-02-01T14:01:04.885Z,14.93
2024-02-01T14:03:32.482Z,18.50
2024-02-01T14:06:01.369Z,11.63
2024-02-01T14:08:28.905Z,19.70
2024-02-01T14:10:57.079Z,16.30
2024-02-01T14:13:25.566Z,12.98
2024-02-01T14:15:53.041Z,20.15
2024-02-01T14:18:20.629Z,14.48
2024-02-01T14:20:48.233Z,17.83
2024-02-01T14:23:18.590Z,17.67
2024-02-01T14:25:46.315Z,19.83
2024-02-01T14:28:13.768Z,14.32
2024-02-01T14:30:41.758Z,11.85
2024-02-01T14:33:09.401Z,17.33
2024-02-01T14:35:36.920Z,13.15
2024-02-01T14:38:04.926Z,19.48
2024-02-01T14:40:33.953Z,13.10
2024-02-01T14:43:01.454Z,23.35
2024-02-01T14:45:28.971Z,25.17
2024-02-01T14:47:56.622Z,18.27
2024-02-01T14:50:24.119Z,24.65
2024-02-01T14:52:51.645Z,20.77
2024-02-01T14:55:19.119Z,15.65
2024-02-01T14:57:47.903Z,17.60
2024-02-01T15:00:18.977Z,20.52
2024-02-01T15:02:46.490Z,15.35
2024-02-01T15:05:14.867Z,23.00
2024-02-01T15:07:43.259Z,19.20
2024-02-01T15:10:15.370Z,21.38
2024-02-01T15:12:42.999Z,22.13
2024-02-01T15:15:12.035Z,28.27
2024-02-01T15:17:40.488Z,16.48
2024-02-01T15:20:09.780Z,14.93
2024-02-01T15:22:37.525Z,21.58
2024-02-01T15:25:05.613Z,21.30
2024-02-01T15:27:33.593Z,22.73
2024-02-01T15:30:10.513Z,19.23
2024-02-01T15:32:40.127Z,20.83
2024-02-01T15:35:08.269Z,15.23
2024-02-01T15:37:35.740Z,22.95
2024-02-01T15:40:03.252Z,15.02
2024-02-01T15:42:31.019Z,21.88
2024-02-01T15:44:58.628Z,16.98
2024-02-01T15:47:33.505Z,19.08
2024-02-01T15:50:10.469Z,20.13
2024-02-01T15:52:37.969Z,20.15
2024-02-01T15:55:06.406Z,19.17
2024-02-01T15:57:33.873Z,20.70
2024-02-01T16:00:01.417Z,26.05
2024-02-01T16:02:28.964Z,19.73
2024-02-01T16:04:56.564Z,20.70
2024-02-01T16:07:25.765Z,19.05
2024-02-01T16:09:53.312Z,20.98
2024-02-01T16:12:22.025Z,21.58
2024-02-01T16:14:50.067Z,19.38
2024-02-01T16:17:17.629Z,25.92
2024-02-01T16:19:47.308Z,17.02
2024-02-01T16:22:15.628Z,18.02
2024-02-01T16:24:58.897Z,19.60
2024-02-01T16:27:59.719Z,23.65
2024-02-01T16:30:54.075Z,18.27
2024-02-01T16:33:23.068Z,22.35
2024-02-01T16:35:51.874Z,26.88
2024-02-01T16:38:20.907Z,24.35
2024-02-01T16:40:50.273Z,22.20
2024-02-01T16:43:31.662Z,23.50
2024-02-01T16:45:59.331Z,20.40
2024-02-01T16:48:27.167Z,19.58
2024-02-01T16:50:54.945Z,19.88
2024-02-01T16:53:37.836Z,23.30
2024-02-01T16:56:08.519Z,28.63
2024-02-01T16:58:45.069Z,19.05
2024-02-01T17:01:37.925Z,23.88
2024-02-01T17:04:06.866Z,20.48
2024-02-01T17:06:35.508Z,24.80
2024-02-01T17:09:03.968Z,15.52
2024-02-01T17:11:35.292Z,22.42
2024-02-01T17:14:06.313Z,16.60
2024-02-01T17:16:55.224Z,17.27
2024-02-01T17:19:22.807Z,16.40
2024-02-01T17:21:50.666Z,23.10
2024-02-01T17:24:20.726Z,22.75
2024-02-01T17:26:50.418Z,19.85
2024-02-01T17:29:19.337Z,27.55
2024-02-01T17:31:48.048Z,21.92
2024-02-01T17:34:22.436Z,20.77
2024-02-01T17:36:49.969Z,20.98
2024-02-01T17:39:35.748Z,23.35
2024-02-01T17:42:09.368Z,20.05
2024-02-01T17:44:41.864Z,20.27
2024-02-01T17:47:09.478Z,25.40
2024-02-01T17:49:43.299Z,24.83
2024-02-01T17:52:42.043Z,21.63
2024-02-01T17:55:22.115Z,31.50
2024-02-01T17:57:55.707Z,23.23
2024-02-01T18:00:25.630Z,22.35
2024-02-01T18:02:55.303Z,21.88
2024-02-01T18:05:24.063Z,22.52
2024-02-01T18:07:52.134Z,26.45
2024-02-01T18:10:21.486Z,21.02
2024-02-01T18:12:49.096Z,19.63
2024-02-01T18:20:18.004Z,21.58
2024-02-01T18:22:46.213Z,24.52
2024-02-01T18:25:18.484Z,24.63
2024-02-01T18:27:48.252Z,22.88
2024-02-01T18:30:17.762Z,26.58
2024-02-01T18:32:45.747Z,16.05
2024-02-01T18:35:29.634Z,24.42
2024-02-01T18:37:57.268Z,23.08
2024-02-01T18:40:29.782Z,28.75
2024-02-01T18:43:02.866Z,28.38
2024-02-01T18:45:39.265Z,21.58
2024-02-01T18:48:07.926Z,32.72
2024-02-01T18:50:39.304Z,24.98
2024-02-01T18:53:07.198Z,25.00
2024-02-01T18:55:38.580Z,22.67
2024-02-01T18:58:06.021Z,21.30
2024-02-01T19:00:42.538Z,22.30
2024-02-01T19:03:25.503Z,23.42
2024-02-01T19:05:54.371Z,23.30
2024-02-01T19:08:25.596Z,20.73
2024-02-01T19:10:53.020Z,13.07
2024-02-01T19:13:49.982Z,23.77
2024-02-01T19:16:19.820Z,26.10
2024-02-01T19:18:47.592Z,26.90
2024-02-01T19:21:17.711Z,24.67
2024-02-01T19:23:45.649Z,25.55
2024-02-01T19:26:13.450Z,26.95
2024-02-01T19:28:48.788Z,25.95
2024-02-01T19:31:18.279Z,26.92
2024-02-01T19:33:47.785Z,37.65
2024-02-01T19:36:30.242Z,18.85
2024-02-01T19:38:58.736Z,26.83
2024-02-01T19:41:26.226Z,23.60
2024-02-01T19:43:53.929Z,23.55
2024-02-01T19:46:22.456Z,21.67
2024-02-01T19:48:50.051Z,28.55
2024-02-01T19:51:17.704Z,33.17
2024-02-01T19:53:46.569Z,20.30
2024-02-01T19:56:16.122Z,24.65
2024-02-01T19:58:43.657Z,22.75
2024-02-01T20:01:11.433Z,20.40
2024-02-01T20:03:38.931Z,22.00
2024-02-01T20:06:07.846Z,27.02
2024-02-01T20:08:35.796Z,23.05
2024-02-01T20:11:04.812Z,27.10
2024-02-01T20:13:32.321Z,23.85
2024-02-01T20:15:59.892Z,27.05
2024-02-01T20:18:28.964Z,22.30
2024-02-01T20:20:57.384Z,17.60
2024-02-01T20:23:25.126Z,25.23
2024-02-01T20:25:52.996Z,26.27
2024-02-01T20:28:49.096Z,38.35
2024-02-01T20:31:21.131Z,24.48
2024-02-01T20:33:52.312Z,27.38
2024-02-01T20:36:53.583Z,26.08
2024-02-01T20:39:28.464Z,23.23
2024-02-01T20:41:59.227Z,23.77
2024-02-01T20:44:31.254Z,24.02
2024-02-01T20:46:58.764Z,20.58
2024-02-01T20:49:26.625Z,24.10
2024-02-01T20:51:58.822Z,28.70
2024-02-01T20:54:31.737Z,23.65
2024-02-01T20:57:17.866Z,30.40
2024-02-01T20:59:49.966Z,31.40
2024-02-01T21:03:07.182Z,24.35
2024-02-01T21:05:42.247Z,22.35
2024-02-01T21:08:15.407Z,29.08
2024-02-01T21:10:48.979Z,32.00
2024-02-01T21:13:17.876Z,21.58
2024-02-01T21:15:49.402Z,23.33
2024-02-01T21:18:19.517Z,28.45
2024-02-01T21:20:48.308Z,27.85
2024-02-01T21:23:38.681Z,24.98
2024-02-01T21:26:23.755Z,17.92
2024-02-01T21:28:55.459Z,25.48
2024-02-01T21:31:46.276Z,24.60
2024-02-01T21:34:15.656Z,28.33
2024-02-01T21:36:43.573Z,26.05
2024-02-01T21:39:20.804Z,19.88
2024-02-01T21:41:48.303Z,33.40
2024-02-01T21:44:17.126Z,24.20
2024-02-01T21:46:46.019Z,24.02
2024-02-01T21:49:13.762Z,33.35
2024-02-01T21:51:41.388Z,27.10
2024-02-01T21:54:08.927Z,33.63
2024-02-01T21:56:36.386Z,24.17
2024-02-01T21:59:06.129Z,28.85
2024-02-01T22:01:33.682Z,25.52
2024-02-01T22:04:02.673Z,25.45
2024-02-01T22:06:31.340Z,25.08
2024-02-01T22:08:58.944Z,24.48
2024-02-01T22:11:26.524Z,27.30
2024-02-01T22:13:54.141Z,27.27
2024-02-01T22:16:21.719Z,25.83
2024-02-01T22:18:49.169Z,29.63
2024-02-01T22:21:18.029Z,25.30
2024-02-01T22:23:45.552Z,27.23
2024-02-01T22:26:12.998Z,20.75
2024-02-01T22:28:41.305Z,32.22
2024-02-01T22:31:09.156Z,28.35
2024-02-01T22:33:36.785Z,26.75
2024-02-01T22:36:04.625Z,31.27
2024-02-01T22:38:33.426Z,21.35
2024-02-01T22:41:00.900Z,33.33
2024-02-01T22:43:29.352Z,30.13
2024-02-01T22:45:56.793Z,21.95
2024-02-01T22:48:24.677Z,31.75
2024-02-01T22:50:52.293Z,27.13
2024-02-01T22:53:19.790Z,26.08
2024-02-01T22:55:48.599Z,25.05
2024-02-01T22:58:16.075Z,25.05
2024-02-01T23:00:43.791Z,26.05
2024-02-01T23:03:11.535Z,27.83
2024-02-01T23:05:39.114Z,27.67
2024-02-01T23:08:06.767Z,24.88
2024-02-01T23:10:34.213Z,33.92
2024-02-01T23:13:03.005Z,37.92
2024-02-01T23:15:30.528Z,23.92
2024-02-01T23:17:58.095Z,26.67
2024-02-01T23:20:25.593Z,34.83
2024-02-01T23:22:53.540Z,28.08
2024-02-01T23:25:21.636Z,26.77
2024-02-01T23:27:49.108Z,22.05
2024-02-01T23:30:18.348Z,28.35
2024-02-01T23:32:46.541Z,29.52
2024-02-01T23:35:14.727Z,30.35
2024-02-01T23:37:42.223Z,29.42
2024-02-01T23:40:11.902Z,34.10
2024-02-01T23:42:39.686Z,32.17
2024-02-01T23:45:09.818Z,22.45
2024-02-01T23:47:38.701Z,32.70
2024-02-01T23:50:07.026Z,37.03
2024-02-01T23:52:37.941Z,31.67
2024-02-01T23:55:06.049Z,23.40
2024-02-01T23:57:34.003Z,32.17
